| time (UTC) | temp C | wind direction | speed KPH | gust KPH | rain 1hr cm | rain 24hr cm | rain mn cm | humidity % | barometer mb |
| 20260505181422 | 15 | 209 | 0.0 | 0.0 | 0.00 | 0.00 | 0.00 | 55 | 1005.1 |
| 20260505180919 | 15 | 299 | 1.6 | 3.2 | 0.00 | 0.00 | 0.00 | 54 | 1005.1 |
| 20260505180421 | 15 | 202 | 0.0 | 1.6 | 0.00 | 0.00 | 0.00 | 55 | 1005.1 |
| 20260505175922 | 15 | 8 | 1.6 | 4.8 | 0.00 | 0.00 | 0.00 | 55 | 1005.4 |
| 20260505175419 | 15 | 318 | 0.0 | 1.6 | 0.00 | 0.00 | 0.00 | 54 | 1005.1 |
| 20260505174919 | 15 | 232 | 0.0 | 1.6 | 0.00 | 0.00 | 0.00 | 54 | 1005.1 |
| 20260505174421 | 15 | 342 | 0.0 | 3.2 | 0.00 | 0.00 | 0.00 | 54 | 1005.4 |
| 20260505173921 | 15 | 277 | 1.6 | 1.6 | 0.00 | 0.00 | 0.00 | 54 | 1005.4 |
| 20260505173418 | 15 | 79 | 0.0 | 1.6 | 0.00 | 0.00 | 0.00 | 54 | 1005.1 |
| 20260505172920 | 16 | 280 | 0.0 | 0.0 | 0.00 | 0.00 | 0.00 | 54 | 1005.1 |
| 20260505172418 | 16 | 204 | 0.0 | 0.0 | 0.00 | 0.00 | 0.00 | 53 | 1005.4 |
| 20260505171918 | 16 | 273 | 0.0 | 0.0 | 0.00 | 0.00 | 0.00 | 53 | 1005.4 |
| 20260505171419 | 16 | 309 | 1.6 | 3.2 | 0.00 | 0.00 | 0.00 | 52 | 1005.1 |
| 20260505170923 | 16 | 295 | 1.6 | 3.2 | 0.00 | 0.00 | 0.00 | 52 | 1005.4 |
| 20260505170421 | 16 | 275 | 1.6 | 1.6 | 0.00 | 0.00 | 0.00 | 52 | 1005.4 |
| 20260505165920 | 16 | 346 | 0.0 | 0.0 | 0.00 | 0.00 | 0.00 | 51 | 1005.4 |
| 20260505165421 | 16 | 338 | 1.6 | 3.2 | 0.00 | 0.00 | 0.00 | 51 | 1005.4 |
| 20260505164918 | 16 | 2 | 3.2 | 4.8 | 0.00 | 0.00 | 0.00 | 51 | 1005.4 |
| 20260505164421 | 16 | 345 | 0.0 | 3.2 | 0.00 | 0.00 | 0.00 | 50 | 1005.1 |
| 20260505163919 | 16 | 315 | 1.6 | 1.6 | 0.00 | 0.00 | 0.00 | 50 | 1005.4 |
| 20260505163424 | 16 | 253 | 0.0 | 4.8 | 0.00 | 0.00 | 0.00 | 51 | 1005.1 |
| 20260505162918 | 16 | 314 | 1.6 | 9.7 | 0.00 | 0.00 | 0.00 | 50 | 1005.4 |
| 20260505162421 | 16 | 49 | 1.6 | 4.8 | 0.00 | 0.00 | 0.00 | 50 | 1005.4 |
| 20260505161920 | 17 | 272 | 1.6 | 3.2 | 0.00 | 0.00 | 0.00 | 49 | 1005.4 |
| 20260505161419 | 17 | 310 | 1.6 | 4.8 | 0.00 | 0.00 | 0.00 | 49 | 1005.1 |
| 20260505160923 | 17 | 333 | 0.0 | 1.6 | 0.00 | 0.00 | 0.00 | 49 | 1005.4 |
| 20260505160421 | 17 | 286 | 1.6 | 3.2 | 0.00 | 0.00 | 0.00 | 49 | 1005.4 |
| 20260505152921 | 18 | 34 | 1.6 | 1.6 | 0.00 | 0.00 | 0.00 | 48 | 1005.4 |
| 20260505152422 | 17 | 78 | 0.0 | 0.0 | 0.00 | 0.00 | 0.00 | 48 | 1005.4 |
| 20260505151923 | 17 | 261 | 0.0 | 1.6 | 0.00 | 0.00 | 0.00 | 48 | 1005.4 |
| 20260505151428 | 17 | 136 | 0.0 | 0.0 | 0.00 | 0.00 | 0.00 | 49 | 1005.4 |
| 20260505150918 | 17 | 189 | 0.0 | 1.6 | 0.00 | 0.00 | 0.00 | 48 | 1005.4 |
| 20260505150421 | 17 | 101 | 0.0 | 1.6 | 0.00 | 0.00 | 0.00 | 48 | 1005.4 |
| 20260505140423 | 18 | 160 | 0.0 | 0.0 | 0.00 | 0.00 | 0.00 | 46 | 1005.8 |
| 20260505124918 | 17 | 56 | 1.6 | 4.8 | 0.00 | 0.00 | 0.00 | 50 | 1005.8 |
| 20260505124420 | 17 | 261 | 0.0 | 1.6 | 0.00 | 0.00 | 0.00 | 49 | 1006.1 |
| 20260505123923 | 17 | 14 | 0.0 | 3.2 | 0.00 | 0.00 | 0.00 | 49 | 1006.1 |
| 20260505123418 | 18 | 85 | 1.6 | 3.2 | 0.00 | 0.00 | 0.00 | 49 | 1006.1 |
| 20260505122922 | 18 | 258 | 0.0 | 1.6 | 0.00 | 0.00 | 0.00 | 49 | 1005.8 |
| 20260505122419 | 17 | 307 | 0.0 | 1.6 | 0.00 | 0.00 | 0.00 | 49 | 1006.1 |
| 20260505121921 | 17 | 236 | 0.0 | 3.2 | 0.00 | 0.00 | 0.00 | 50 | 1005.8 |
| 20260505121418 | 17 | 146 | 1.6 | 8.0 | 0.00 | 0.00 | 0.00 | 50 | 1006.1 |
| 20260505120922 | 18 | 335 | 0.0 | 1.6 | 0.00 | 0.00 | 0.00 | 48 | 1006.1 |
| 20260505120418 | 18 | 277 | 0.0 | 1.6 | 0.00 | 0.00 | 0.00 | 48 | 1005.8 |
| 20260505115919 | 18 | 171 | 0.0 | 3.2 | 0.00 | 0.00 | 0.00 | 48 | 1006.1 |
| 20260505115421 | 18 | 178 | 0.0 | 1.6 | 0.00 | 0.00 | 0.00 | 48 | 1006.1 |
| 20260505114918 | 18 | 249 | 0.0 | 1.6 | 0.00 | 0.00 | 0.00 | 49 | 1005.8 |
| 20260505114418 | 18 | 218 | 0.0 | 1.6 | 0.00 | 0.00 | 0.00 | 49 | 1006.1 |
| 20260505113918 | 18 | 317 | 3.2 | 4.8 | 0.00 | 0.00 | 0.00 | 49 | 1006.1 |
| 20260505113419 | 18 | 93 | 1.6 | 3.2 | 0.00 | 0.00 | 0.00 | 49 | 1006.1 |
| 20260505112918 | 18 | 304 | 0.0 | 3.2 | 0.00 | 0.00 | 0.00 | 48 | 1006.1 |
| 20260505112420 | 19 | 18 | 0.0 | 3.2 | 0.00 | 0.00 | 0.00 | 47 | 1006.4 |
| 20260505111920 | 19 | 292 | 0.0 | 0.0 | 0.00 | 0.00 | 0.00 | 47 | 1006.1 |
| 20260505111422 | 19 | 311 | 1.6 | 3.2 | 0.00 | 0.00 | 0.00 | 47 | 1006.1 |
| 20260505110920 | 18 | 216 | 0.0 | 1.6 | 0.00 | 0.00 | 0.00 | 51 | 1006.1 |
| 20260505110419 | 19 | 227 | 0.0 | 1.6 | 0.00 | 0.00 | 0.00 | 49 | 1006.1 |
| 20260505101920 | 16 | 169 | 1.6 | 3.2 | 0.00 | 0.00 | 0.00 | 58 | 1006.8 |
| 20260505101421 | 15 | 146 | 1.6 | 4.8 | 0.00 | 0.00 | 0.00 | 60 | 1006.8 |
| 20260505100921 | 15 | 317 | 0.0 | 3.2 | 0.00 | 0.00 | 0.00 | 59 | 1006.8 |
| 20260505100421 | 15 | 208 | 0.0 | 3.2 | 0.00 | 0.00 | 0.00 | 60 | 1006.8 |
| 20260505095922 | 15 | 215 | 0.0 | 1.6 | 0.00 | 0.00 | 0.00 | 61 | 1006.8 |
| 20260505095421 | 14 | 176 | 0.0 | 8.0 | 0.00 | 0.00 | 0.00 | 63 | 1006.8 |
| 20260505094920 | 14 | 185 | 4.8 | 9.7 | 0.00 | 0.00 | 0.00 | 65 | 1006.8 |
| 20260505094418 | 14 | 218 | 0.0 | 0.0 | 0.00 | 0.00 | 0.00 | 66 | 1006.8 |
| 20260505093920 | 14 | 105 | 3.2 | 4.8 | 0.00 | 0.00 | 0.00 | 66 | 1006.8 |
| 20260505093420 | 14 | 229 | 0.0 | 1.6 | 0.00 | 0.00 | 0.00 | 65 | 1006.8 |
| 20260505092920 | 14 | 342 | 0.0 | 1.6 | 0.00 | 0.00 | 0.00 | 66 | 1006.8 |
| 20260505092419 | 14 | 153 | 0.0 | 1.6 | 0.00 | 0.00 | 0.00 | 66 | 1006.8 |
| 20260505091921 | 14 | 207 | 0.0 | 1.6 | 0.00 | 0.00 | 0.00 | 66 | 1006.8 |
| 20260505091420 | 14 | 336 | 0.0 | 1.6 | 0.00 | 0.00 | 0.00 | 66 | 1006.8 |
| 20260505090920 | 13 | 208 | 0.0 | 1.6 | 0.00 | 0.00 | 0.00 | 68 | 1006.8 |
| 20260505090422 | 13 | 282 | 0.0 | 3.2 | 0.00 | 0.00 | 0.00 | 68 | 1007.1 |
| 20260505085920 | 13 | 86 | 1.6 | 1.6 | 0.00 | 0.00 | 0.00 | 68 | 1007.1 |
| 20260505085421 | 15 | 264 | 0.0 | 1.6 | 0.00 | 0.00 | 0.00 | 67 | 1007.1 |
| 20260505084918 | 14 | 348 | 0.0 | 1.6 | 0.00 | 0.00 | 0.00 | 68 | 1007.1 |
| 20260505084420 | 13 | 331 | 0.0 | 0.0 | 0.00 | 0.00 | 0.00 | 69 | 1007.1 |
| 20260505083919 | 13 | 301 | 0.0 | 1.6 | 0.00 | 0.00 | 0.00 | 69 | 1007.1 |
| 20260505083419 | 13 | 92 | 0.0 | 1.6 | 0.00 | 0.00 | 0.00 | 70 | 1007.1 |
| 20260505082919 | 13 | 221 | 0.0 | 8.0 | 0.00 | 0.00 | 0.00 | 70 | 1007.1 |
| 20260505082418 | 13 | 101 | 0.0 | 1.6 | 0.00 | 0.00 | 0.00 | 69 | 1007.1 |
| 20260505081922 | 13 | 219 | 0.0 | 1.6 | 0.00 | 0.00 | 0.00 | 70 | 1007.1 |
| 20260505081419 | 13 | 58 | 0.0 | 0.0 | 0.00 | 0.00 | 0.00 | 71 | 1007.1 |
| 20260505080919 | 13 | 198 | 0.0 | 1.6 | 0.00 | 0.00 | 0.00 | 72 | 1007.1 |
| 20260505080420 | 13 | 56 | 0.0 | 1.6 | 0.00 | 0.00 | 0.00 | 72 | 1007.1 |
| 20260505075922 | 13 | 84 | 0.0 | 1.6 | 0.00 | 0.00 | 0.00 | 71 | 1007.1 |
| 20260505075421 | 13 | 292 | 0.0 | 0.0 | 0.00 | 0.00 | 0.00 | 72 | 1007.1 |
| 20260505074919 | 13 | 294 | 0.0 | 1.6 | 0.00 | 0.00 | 0.00 | 71 | 1006.8 |
| 20260505074420 | 13 | 223 | 0.0 | 1.6 | 0.00 | 0.00 | 0.00 | 71 | 1006.8 |
| 20260505073922 | 13 | 317 | 0.0 | 3.2 | 0.00 | 0.00 | 0.00 | 73 | 1007.1 |
| 20260505073418 | 13 | 277 | 0.0 | 0.0 | 0.00 | 0.00 | 0.00 | 73 | 1007.1 |
| 20260505072431 | 13 | 168 | 0.0 | 1.6 | 0.00 | 0.00 | 0.00 | 74 | 1007.1 |
| 20260505071922 | 13 | 285 | 0.0 | 0.0 | 0.00 | 0.00 | 0.00 | 74 | 1007.1 |
| 20260505071419 | 13 | 279 | 0.0 | 0.0 | 0.00 | 0.00 | 0.00 | 74 | 1007.1 |
| 20260505070923 | 13 | 239 | 0.0 | 0.0 | 0.00 | 0.00 | 0.00 | 74 | 1006.8 |
| 20260505070420 | 13 | 177 | 0.0 | 0.0 | 0.00 | 0.00 | 0.00 | 76 | 1007.1 |
| 20260505065918 | 13 | 236 | 0.0 | 0.0 | 0.00 | 0.00 | 0.00 | 77 | 1007.1 |
| 20260505065419 | 12 | 272 | 0.0 | 0.0 | 0.00 | 0.00 | 0.00 | 77 | 1007.1 |
| 20260505064918 | 12 | 121 | 0.0 | 0.0 | 0.00 | 0.00 | 0.00 | 77 | 1007.1 |
| 20260505064420 | 12 | 269 | 0.0 | 0.0 | 0.00 | 0.00 | 0.00 | 78 | 1007.1 |
| 20260505063919 | 12 | 313 | 0.0 | 0.0 | 0.00 | 0.00 | 0.00 | 78 | 1007.1 |
| 20260505063419 | 12 | 186 | 0.0 | 1.6 | 0.00 | 0.00 | 0.00 | 78 | 1007.1 |
| 20260505062918 | 12 | 299 | 0.0 | 0.0 | 0.00 | 0.00 | 0.00 | 79 | 1007.1 |
| 20260505062418 | 12 | 219 | 0.0 | 0.0 | 0.00 | 0.00 | 0.00 | 80 | 1006.8 |
| 20260505061918 | 12 | 230 | 0.0 | 1.6 | 0.00 | 0.00 | 0.00 | 80 | 1007.1 |
| 20260505061418 | 12 | 240 | 1.6 | 1.6 | 0.00 | 0.00 | 0.00 | 81 | 1007.1 |
| 20260505060918 | 12 | 67 | 1.6 | 1.6 | 0.00 | 0.00 | 0.00 | 81 | 1007.1 |
| 20260505060419 | 12 | 231 | 0.0 | 0.0 | 0.00 | 0.00 | 0.00 | 82 | 1007.1 |
| 20260505055919 | 12 | 206 | 0.0 | 0.0 | 0.00 | 0.00 | 0.00 | 82 | 1007.1 |
| 20260505055418 | 12 | 336 | 0.0 | 0.0 | 0.00 | 0.00 | 0.00 | 82 | 1007.1 |
| 20260505054919 | 12 | 214 | 0.0 | 1.6 | 0.00 | 0.00 | 0.00 | 83 | 1007.1 |
| 20260505054419 | 12 | 238 | 0.0 | 0.0 | 0.00 | 0.00 | 0.00 | 83 | 1007.1 |
| 20260505053918 | 12 | 208 | 0.0 | 0.0 | 0.00 | 0.00 | 0.00 | 83 | 1007.1 |
| 20260505053418 | 12 | 207 | 0.0 | 0.0 | 0.00 | 0.00 | 0.00 | 84 | 1007.1 |
| 20260505052919 | 11 | 259 | 0.0 | 0.0 | 0.00 | 0.00 | 0.00 | 83 | 1007.1 |
| 20260505052419 | 12 | 223 | 0.0 | 0.0 | 0.00 | 0.00 | 0.00 | 83 | 1007.5 |
| 20260505051918 | 12 | 305 | 0.0 | 0.0 | 0.00 | 0.00 | 0.00 | 83 | 1007.1 |
| 20260505051420 | 11 | 230 | 0.0 | 1.6 | 0.00 | 0.00 | 0.00 | 83 | 1007.1 |
| 20260505050919 | 12 | 246 | 0.0 | 0.0 | 0.00 | 0.00 | 0.00 | 83 | 1007.5 |
| 20260505050419 | 11 | 221 | 0.0 | 0.0 | 0.00 | 0.00 | 0.00 | 83 | 1007.1 |
| 20260505041418 | 12 | 222 | 0.0 | 0.0 | 0.00 | 0.00 | 0.00 | 83 | 1007.5 |
| 20260505040918 | 12 | 192 | 0.0 | 0.0 | 0.00 | 0.00 | 0.00 | 83 | 1007.5 |
| 20260505040418 | 12 | 205 | 0.0 | 0.0 | 0.00 | 0.00 | 0.00 | 83 | 1007.5 |
| 20260505035432 | 12 | 226 | 0.0 | 0.0 | 0.00 | 0.00 | 0.00 | 84 | 1007.1 |
| 20260505034919 | 12 | 8 | 0.0 | 0.0 | 0.00 | 0.00 | 0.00 | 84 | 1007.5 |
| 20260505034418 | 12 | 1 | 0.0 | 0.0 | 0.00 | 0.00 | 0.00 | 84 | 1007.5 |
| 20260505033920 | 12 | 178 | 0.0 | 0.0 | 0.00 | 0.00 | 0.00 | 85 | 1007.5 |
| 20260505033418 | 12 | 214 | 0.0 | 0.0 | 0.00 | 0.00 | 0.00 | 85 | 1007.5 |
| 20260505032919 | 12 | 186 | 0.0 | 0.0 | 0.00 | 0.00 | 0.00 | 85 | 1007.5 |
| 20260505032418 | 12 | 352 | 0.0 | 1.6 | 0.00 | 0.00 | 0.00 | 85 | 1007.5 |
| 20260505031918 | 12 | 341 | 0.0 | 1.6 | 0.00 | 0.00 | 0.00 | 85 | 1007.5 |
| 20260505031419 | 12 | 127 | 0.0 | 3.2 | 0.00 | 0.00 | 0.00 | 85 | 1007.5 |
| 20260505030918 | 12 | 220 | 0.0 | 3.2 | 0.00 | 0.00 | 0.00 | 85 | 1007.5 |
| 20260505030419 | 12 | 312 | 1.6 | 3.2 | 0.00 | 0.00 | 0.00 | 85 | 1007.5 |
| 20260505025918 | 12 | 289 | 0.0 | 3.2 | 0.00 | 0.00 | 0.00 | 85 | 1007.5 |
| 20260505025418 | 12 | 338 | 0.0 | 1.6 | 0.00 | 0.00 | 0.00 | 85 | 1007.5 |
| 20260505024918 | 12 | 230 | 0.0 | 1.6 | 0.00 | 0.00 | 0.00 | 85 | 1007.5 |
| 20260505024419 | 12 | 272 | 0.0 | 0.0 | 0.00 | 0.00 | 0.00 | 85 | 1007.5 |
| 20260505023919 | 12 | 306 | 0.0 | 0.0 | 0.00 | 0.00 | 0.00 | 85 | 1007.5 |
| 20260505023418 | 12 | 192 | 0.0 | 0.0 | 0.00 | 0.00 | 0.00 | 85 | 1007.5 |
| 20260505022919 | 12 | 319 | 0.0 | 3.2 | 0.00 | 0.00 | 0.00 | 85 | 1007.5 |
| 20260505022418 | 12 | 245 | 0.0 | 0.0 | 0.00 | 0.00 | 0.00 | 86 | 1007.5 |
| 20260505021918 | 12 | 248 | 0.0 | 0.0 | 0.00 | 0.00 | 0.00 | 86 | 1007.8 |
| 20260505021418 | 12 | 338 | 1.6 | 3.2 | 0.00 | 0.00 | 0.00 | 85 | 1007.5 |
| 20260505020919 | 12 | 198 | 0.0 | 0.0 | 0.00 | 0.00 | 0.00 | 86 | 1007.5 |
| 20260505020418 | 12 | 222 | 0.0 | 0.0 | 0.00 | 0.00 | 0.00 | 86 | 1007.8 |
| 20260505015919 | 12 | 204 | 0.0 | 3.2 | 0.00 | 0.00 | 0.00 | 86 | 1007.8 |
| 20260505015418 | 12 | 319 | 0.0 | 1.6 | 0.00 | 0.00 | 0.00 | 86 | 1007.8 |
| 20260505014920 | 12 | 195 | 0.0 | 0.0 | 0.00 | 0.00 | 0.00 | 86 | 1007.5 |
| 20260505014418 | 12 | 345 | 0.0 | 1.6 | 0.00 | 0.00 | 0.00 | 86 | 1007.8 |
| 20260505013919 | 12 | 266 | 0.0 | 3.2 | 0.00 | 0.00 | 0.00 | 87 | 1007.5 |
| 20260505013420 | 11 | 296 | 1.6 | 1.6 | 0.00 | 0.00 | 0.00 | 87 | 1007.8 |
| 20260505012918 | 12 | 354 | 4.8 | 9.7 | 0.00 | 0.00 | 0.00 | 87 | 1007.8 |
| 20260505012419 | 12 | 250 | 0.0 | 3.2 | 0.00 | 0.00 | 0.00 | 87 | 1007.8 |
| 20260505011918 | 12 | 341 | 1.6 | 4.8 | 0.00 | 0.00 | 0.00 | 87 | 1008.1 |
| 20260505011418 | 12 | 157 | 0.0 | 1.6 | 0.00 | 0.00 | 0.00 | 86 | 1007.8 |
| 20260505010918 | 12 | 257 | 0.0 | 3.2 | 0.00 | 0.00 | 0.00 | 85 | 1008.1 |
| 20260505010418 | 12 | 204 | 0.0 | 1.6 | 0.00 | 0.00 | 0.00 | 84 | 1008.1 |
| 20260505005918 | 12 | 304 | 0.0 | 3.2 | 0.00 | 0.00 | 0.00 | 84 | 1008.1 |
| 20260505005419 | 12 | 301 | 0.0 | 1.6 | 0.00 | 0.00 | 0.00 | 83 | 1008.1 |
| 20260505004918 | 12 | 16 | 0.0 | 0.0 | 0.00 | 0.00 | 0.00 | 83 | 1008.1 |
| 20260505004418 | 12 | 251 | 0.0 | 0.0 | 0.00 | 0.00 | 0.00 | 83 | 1008.1 |
| 20260505003918 | 12 | 303 | 0.0 | 0.0 | 0.00 | 0.00 | 0.00 | 84 | 1008.1 |
| 20260505003419 | 12 | 253 | 0.0 | 0.0 | 0.00 | 0.00 | 0.00 | 84 | 1008.1 |
| 20260505002918 | 12 | 333 | 0.0 | 0.0 | 0.00 | 0.00 | 0.00 | 84 | 1008.1 |
| 20260505002419 | 12 | 298 | 0.0 | 1.6 | 0.00 | 0.00 | 0.00 | 84 | 1008.1 |
| 20260505001919 | 12 | 133 | 0.0 | 1.6 | 0.00 | 0.00 | 0.00 | 84 | 1008.1 |
| 20260505001420 | 12 | 316 | 0.0 | 1.6 | 0.00 | 0.00 | 0.00 | 84 | 1008.1 |
| 20260505000919 | 12 | 316 | 0.0 | 1.6 | 0.00 | 0.00 | 0.00 | 84 | 1008.1 |
| 20260505000420 | 12 | 319 | 1.6 | 3.2 | 0.00 | 0.00 | 0.00 | 84 | 1008.1 |
| 20260504235919 | 13 | 304 | 0.0 | 3.2 | 0.00 | 0.00 | 0.00 | 84 | 1008.1 |
| 20260504235418 | 13 | 331 | 0.0 | 1.6 | 0.00 | 0.00 | 0.00 | 84 | 1008.5 |
| 20260504234918 | 13 | 224 | 0.0 | 0.0 | 0.00 | 0.00 | 0.00 | 85 | 1008.5 |
| 20260504234419 | 13 | 196 | 0.0 | 0.0 | 0.00 | 0.00 | 0.00 | 86 | 1008.1 |
| 20260504233918 | 12 | 187 | 0.0 | 0.0 | 0.00 | 0.00 | 0.00 | 86 | 1008.1 |
| 20260504233420 | 12 | 198 | 0.0 | 0.0 | 0.00 | 0.00 | 0.00 | 87 | 1008.1 |
| 20260504232918 | 12 | 2 | 0.0 | 1.6 | 0.00 | 0.00 | 0.00 | 87 | 1008.1 |
| 20260504232418 | 12 | 295 | 1.6 | 3.2 | 0.00 | 0.00 | 0.00 | 86 | 1008.5 |
| 20260504231921 | 13 | 165 | 1.6 | 4.8 | 0.00 | 0.00 | 0.00 | 85 | 1008.5 |
| 20260504231419 | 13 | 228 | 0.0 | 8.0 | 0.00 | 0.00 | 0.00 | 85 | 1008.1 |
| 20260504230919 | 13 | 225 | 0.0 | 0.0 | 0.00 | 0.00 | 0.00 | 84 | 1008.5 |
| 20260504230418 | 13 | 10 | 0.0 | 0.0 | 0.00 | 0.00 | 0.00 | 84 | 1008.5 |
| 20260504225919 | 13 | 340 | 1.6 | 4.8 | 0.00 | 0.00 | 0.00 | 83 | 1008.5 |
| 20260504225419 | 14 | 292 | 1.6 | 4.8 | 0.00 | 0.00 | 0.00 | 82 | 1008.5 |
| 20260504224919 | 14 | 227 | 0.0 | 0.0 | 0.00 | 0.00 | 0.00 | 80 | 1008.1 |
| 20260504224420 | 13 | 139 | 0.0 | 0.0 | 0.00 | 0.00 | 0.00 | 79 | 1008.1 |
| 20260504223918 | 13 | 215 | 0.0 | 9.7 | 0.00 | 0.00 | 0.00 | 79 | 1008.5 |
| 20260504223418 | 14 | 282 | 0.0 | 1.6 | 0.00 | 0.00 | 0.00 | 80 | 1008.5 |
| 20260504222918 | 14 | 158 | 0.0 | 1.6 | 0.00 | 0.00 | 0.00 | 80 | 1008.1 |
| 20260504222418 | 14 | 300 | 0.0 | 0.0 | 0.00 | 0.00 | 0.00 | 81 | 1008.1 |
| 20260504221922 | 14 | 3 | 0.0 | 0.0 | 0.00 | 0.00 | 0.00 | 81 | 1008.5 |
| 20260504221425 | 14 | 281 | 0.0 | 0.0 | 0.00 | 0.00 | 0.00 | 81 | 1008.5 |
| 20260504220919 | 14 | 199 | 0.0 | 0.0 | 0.00 | 0.00 | 0.00 | 81 | 1008.5 |
| 20260504220419 | 14 | 201 | 0.0 | 0.0 | 0.00 | 0.00 | 0.00 | 81 | 1008.5 |
| 20260504215920 | 14 | 208 | 0.0 | 0.0 | 0.00 | 0.00 | 0.00 | 81 | 1008.5 |
| 20260504215420 | 14 | 194 | 0.0 | 0.0 | 0.00 | 0.00 | 0.00 | 81 | 1008.5 |
| 20260504214920 | 14 | 256 | 0.0 | 0.0 | 0.00 | 0.00 | 0.00 | 81 | 1008.5 |
| 20260504214421 | 14 | 249 | 0.0 | 0.0 | 0.00 | 0.00 | 0.00 | 80 | 1008.5 |
| 20260504213918 | 14 | 325 | 0.0 | 1.6 | 0.00 | 0.00 | 0.00 | 80 | 1008.5 |
| 20260504213418 | 15 | 233 | 0.0 | 0.0 | 0.00 | 0.00 | 0.00 | 79 | 1008.5 |
| 20260504212919 | 15 | 280 | 0.0 | 0.0 | 0.00 | 0.00 | 0.00 | 80 | 1008.5 |
| 20260504212420 | 15 | 236 | 0.0 | 1.6 | 0.00 | 0.00 | 0.00 | 80 | 1008.5 |
| 20260504211918 | 15 | 194 | 0.0 | 1.6 | 0.00 | 0.00 | 0.00 | 80 | 1008.5 |
| 20260504211418 | 15 | 307 | 0.0 | 1.6 | 0.00 | 0.00 | 0.00 | 79 | 1008.5 |
| 20260504210918 | 14 | 254 | 0.0 | 0.0 | 0.00 | 0.00 | 0.00 | 80 | 1008.5 |
| 20260504210419 | 14 | 307 | 0.0 | 0.0 | 0.00 | 0.00 | 0.00 | 80 | 1008.5 |
| 20260504205921 | 14 | 327 | 1.6 | 1.6 | 0.00 | 0.00 | 0.00 | 80 | 1008.5 |
| 20260504205418 | 14 | 321 | 1.6 | 3.2 | 0.00 | 0.00 | 0.00 | 80 | 1008.8 |
| 20260504204921 | 15 | 333 | 4.8 | 4.8 | 0.00 | 0.00 | 0.00 | 79 | 1008.5 |
| 20260504204419 | 15 | 134 | 0.0 | 0.0 | 0.00 | 0.00 | 0.00 | 78 | 1008.5 |
| 20260504203919 | 15 | 313 | 1.6 | 1.6 | 0.00 | 0.00 | 0.00 | 78 | 1008.8 |
| 20260504203419 | 15 | 200 | 0.0 | 0.0 | 0.00 | 0.00 | 0.00 | 78 | 1008.5 |
| 20260504202918 | 15 | 213 | 0.0 | 0.0 | 0.00 | 0.00 | 0.00 | 77 | 1008.5 |
| 20260504202421 | 15 | 206 | 0.0 | 0.0 | 0.00 | 0.00 | 0.00 | 77 | 1008.5 |
| 20260504201919 | 15 | 234 | 0.0 | 0.0 | 0.00 | 0.00 | 0.00 | 77 | 1008.8 |
| 20260504201418 | 15 | 235 | 0.0 | 0.0 | 0.00 | 0.00 | 0.00 | 76 | 1008.8 |
| 20260504200918 | 15 | 226 | 0.0 | 0.0 | 0.00 | 0.00 | 0.00 | 76 | 1008.5 |
| 20260504200420 | 15 | 227 | 0.0 | 0.0 | 0.00 | 0.00 | 0.00 | 75 | 1008.5 |
| 20260504195918 | 15 | 232 | 0.0 | 0.0 | 0.00 | 0.00 | 0.00 | 74 | 1008.1 |
| 20260504195419 | 16 | 226 | 0.0 | 0.0 | 0.00 | 0.00 | 0.00 | 73 | 1008.1 |
| 20260504194923 | 16 | 170 | 0.0 | 0.0 | 0.00 | 0.00 | 0.00 | 73 | 1008.5 |
| 20260504194419 | 15 | 268 | 0.0 | 0.0 | 0.00 | 0.00 | 0.00 | 73 | 1008.1 |
| 20260504193919 | 16 | 349 | 0.0 | 0.0 | 0.00 | 0.00 | 0.00 | 73 | 1008.1 |
| 20260504193420 | 16 | 309 | 0.0 | 0.0 | 0.00 | 0.00 | 0.00 | 73 | 1008.1 |
| 20260504192919 | 16 | 239 | 0.0 | 0.0 | 0.00 | 0.00 | 0.00 | 73 | 1008.1 |
| 20260504192419 | 16 | 236 | 0.0 | 0.0 | 0.00 | 0.00 | 0.00 | 73 | 1008.1 |
| 20260504191919 | 16 | 320 | 0.0 | 1.6 | 0.00 | 0.00 | 0.00 | 73 | 1008.1 |
| 20260504191418 | 16 | 245 | 0.0 | 1.6 | 0.00 | 0.00 | 0.00 | 73 | 1008.1 |
| 20260504190919 | 16 | 257 | 0.0 | 0.0 | 0.00 | 0.00 | 0.00 | 73 | 1008.1 |
| 20260504190423 | 16 | 234 | 0.0 | 1.6 | 0.00 | 0.00 | 0.00 | 73 | 1007.8 |
| 20260504185918 | 15 | 252 | 0.0 | 0.0 | 0.00 | 0.00 | 0.00 | 74 | 1007.8 |
| 20260504185423 | 15 | 157 | 0.0 | 3.2 | 0.00 | 0.00 | 0.00 | 73 | 1007.8 |
| 20260504184918 | 16 | 288 | 0.0 | 1.6 | 0.00 | 0.00 | 0.00 | 73 | 1008.1 |
| 20260504184422 | 16 | 106 | 0.0 | 3.2 | 0.00 | 0.00 | 0.00 | 72 | 1007.8 |
| 20260504183919 | 16 | 35 | 0.0 | 0.0 | 0.00 | 0.00 | 0.00 | 71 | 1007.8 |
| 20260504183419 | 16 | 12 | 0.0 | 0.0 | 0.00 | 0.00 | 0.00 | 72 | 1008.1 |
| 20260504182920 | 16 | 90 | 0.0 | 1.6 | 0.00 | 0.00 | 0.00 | 71 | 1007.8 |
| 20260504182421 | 17 | 272 | 0.0 | 0.0 | 0.00 | 0.00 | 0.00 | 70 | 1007.8 |
| 20260504181918 | 17 | 130 | 0.0 | 0.0 | 0.00 | 0.00 | 0.00 | 70 | 1007.8 |